Time;durP1;ratioP1;P1;durP2;ratioP2;P2;SDS_P1;SDS_P2;PMS_P1;PMS_P2;Temp;Humidity;BMP_temperature;BMP_pressure;BME280_temperature;BME280_humidity;BME280_pressure;Samples;Min_cycle;Max_cycle;Signal;HPM_P1;HPM_P2
2023/01/18 00:00:03;;;;;;;;;;;;;;;;;;5059906;28;20387;-61
2023/01/18 00:02:28;;;;;;;;;;;;;;;;;;5076584;28;20380;-62
2023/01/18 00:04:54;;;;;;;;;;;;;;;;;;5068800;28;20395;-62
2023/01/18 00:07:19;;;;;;;;;;;;;;;;;;5063644;28;19958;-63
2023/01/18 00:09:44;;;;;;;;;;;;;;;;;;5081943;28;19920;-62
2023/01/18 00:12:09;;;;;;;;;;;;;;;;;;5068573;28;19917;-62
2023/01/18 00:14:34;;;;;;;;;;;;;;;;;;5067966;28;19960;-62
2023/01/18 00:16:59;;;;;;;;;;;;;;;;;;5073151;28;19912;-62
2023/01/18 00:19:24;;;;;;;;;;;;;;;;;;5064997;28;19987;-62
2023/01/18 00:21:53;;;;;;;;;;;;;;;;;;5069557;28;19959;-62
2023/01/18 00:24:21;;;;;;;;;;;;;;;;;;5071417;28;19974;-62
2023/01/18 00:26:46;;;;;;;;;;;;;;;;;;5065524;28;19921;-62
2023/01/18 00:29:11;;;;;;;;;;;;;;;;;;5069228;28;20340;-62
2023/01/18 00:31:37;;;;;;;;;;;;;;;;;;5062133;28;19913;-62
2023/01/18 00:34:02;;;;;;;;;;;;;;;;;;5065260;28;19986;-63
2023/01/18 00:36:28;;;;;;;;;;;;;;;;;;5073779;28;19913;-62
2023/01/18 00:38:53;;;;;;;;;;;;;;;;;;5066902;28;19966;-61
2023/01/18 00:41:18;;;;;;;;;;;;;;;;;;5068837;28;19912;-63
2023/01/18 00:43:43;;;;;;;;;;;;;;;;;;5058809;28;20203;-63
2023/01/18 00:46:08;;;;;;;;;;;;;;;;;;5073302;28;19924;-63
2023/01/18 00:48:33;;;;;;;;;;;;;;;;;;5026332;28;19916;-63
2023/01/18 00:50:59;;;;;;;;;;;;;;;;;;5060260;28;19927;-63
2023/01/18 00:53:24;;;;;;;;;;;;;;;;;;5074410;28;19912;-63
2023/01/18 00:55:49;;;;;;;;;;;;;;;;;;5050076;28;19914;-63
2023/01/18 00:58:14;;;;;;;;;;;;;;;;;;5058245;28;19912;-63
2023/01/18 01:00:39;;;;;;;;;;;;;;;;;;5064996;28;19908;-63
2023/01/18 01:03:04;;;;;;;;;;;;;;;;;;5062734;28;19917;-63
2023/01/18 01:08:16;;;;;;;;;;;;;;;;;;5070624;28;19919;-63
2023/01/18 01:10:41;;;;;;;;;;;;;;;;;;5069577;28;19913;-62
2023/01/18 01:26:46;;;;;;;;;;;;;;;;;;5064267;28;20320;-63
2023/01/18 01:29:11;;;;;;;;;;;;;;;;;;5068788;28;20391;-63
2023/01/18 01:31:37;;;;;;;;;;;;;;;;;;5069620;28;19951;-62
2023/01/18 01:34:02;;;;;;;;;;;;;;;;;;5064050;28;19916;-63
2023/01/18 01:36:27;;;;;;;;;;;;;;;;;;5066764;28;20388;-63
2023/01/18 01:38:53;;;;;;;;;;;;;;;;;;5065661;28;19912;-62
2023/01/18 01:41:18;;;;;;;;;;;;;;;;;;5075552;28;19913;-62
2023/01/18 01:43:43;;;;;;;;;;;;;;;;;;5073973;28;19922;-62
2023/01/18 01:46:09;;;;;;;;;;;;;;;;;;5068371;28;20403;-62
2023/01/18 01:48:34;;;;;;;;;;;;;;;;;;5043356;28;20460;-63
2023/01/18 01:50:59;;;;;;;;;;;;;;;;;;5067657;28;19934;-63
2023/01/18 01:53:24;;;;;;;;;;;;;;;;;;5061960;28;19919;-62
2023/01/18 01:55:49;;;;;;;;;;;;;;;;;;5078719;28;19999;-61
2023/01/18 01:58:15;;;;;;;;;;;;;;;;;;5070694;28;19909;-62
2023/01/18 02:00:40;;;;;;;;;;;;;;;;;;5062848;28;19913;-63
2023/01/18 02:03:05;;;;;;;;;;;;;;;;;;5059780;28;19913;-63
2023/01/18 02:05:30;;;;;;;;;;;;;;;;;;5052606;28;19966;-62
2023/01/18 02:07:55;;;;;;;;;;;;;;;;;;5061472;28;20009;-62
2023/01/18 02:10:20;;;;;;;;;;;;;;;;;;5066509;28;19971;-62
2023/01/18 02:12:46;;;;;;;;;;;;;;;;;;5068977;28;19916;-62
2023/01/18 02:15:11;;;;;;;;;;;;;;;;;;5059354;28;19916;-62
2023/01/18 02:17:37;;;;;;;;;;;;;;;;;;5068623;28;20349;-63
2023/01/18 02:20:05;;;;;;;;;;;;;;;;;;5064853;28;20436;-63
2023/01/18 02:22:30;;;;;;;;;;;;;;;;;;5068730;28;19951;-62
2023/01/18 02:24:56;;;;;;;;;;;;;;;;;;5067163;28;19963;-63
2023/01/18 02:27:21;;;;;;;;;;;;;;;;;;5071192;28;19913;-61
2023/01/18 02:29:46;;;;;;;;;;;;;;;;;;5070183;28;19913;-62
2023/01/18 02:32:11;;;;;;;;;;;;;;;;;;5067142;28;19990;-62
2023/01/18 02:34:36;;;;;;;;;;;;;;;;;;5064633;28;19916;-62
2023/01/18 02:37:01;;;;;;;;;;;;;;;;;;5066115;28;19923;-63
2023/01/18 02:39:31;;;;;;;;;;;;;;;;;;5062707;28;19959;-63
2023/01/18 02:47:34;;;;;;;;;;;;;;;;;;5007345;28;19955;-62
2023/01/18 02:50:00;;;;;;;;;;;;;;;;;;5009029;28;20356;-61
2023/01/18 02:52:25;;;;;;;;;;;;;;;;;;5006528;28;20372;-62
2023/01/18 02:54:50;;;;;;;;;;;;;;;;;;5006995;28;19913;-63
2023/01/18 02:57:15;;;;;;;;;;;;;;;;;;5003668;28;19940;-63
2023/01/18 02:59:40;;;;;;;;;;;;;;;;;;5008296;28;19913;-64
2023/01/18 03:02:05;;;;;;;;;;;;;;;;;;5005502;28;19913;-61
2023/01/18 03:04:31;;;;;;;;;;;;;;;;;;5007709;28;20008;-62
2023/01/18 03:06:56;;;;;;;;;;;;;;;;;;5002848;28;19944;-62
2023/01/18 03:09:25;;;;;;;;;;;;;;;;;;5006019;28;19925;-62
2023/01/18 03:11:51;;;;;;;;;;;;;;;;;;5006227;28;20060;-62
2023/01/18 03:14:16;;;;;;;;;;;;;;;;;;5008508;28;20004;-63
2023/01/18 03:16:41;;;;;;;;;;;;;;;;;;5007909;28;19914;-62
2023/01/18 03:21:50;;;;;;;;;;;;;;;;;;5055220;28;19919;-62
2023/01/18 03:24:15;;;;;;;;;;;;;;;;;;5059292;28;19916;-63
2023/01/18 03:26:40;;;;;;;;;;;;;;;;;;5065709;28;19913;-62
2023/01/18 03:34:33;;;;;;;;;;;;;;;;;;5063056;28;20425;-63
2023/01/18 03:36:58;;;;;;;;;;;;;;;;;;5062598;28;19913;-62
2023/01/18 03:39:23;;;;;;;;;;;;;;;;;;5064544;28;19925;-62
2023/01/18 03:41:48;;;;;;;;;;;;;;;;;;5060295;28;19924;-62
2023/01/18 03:44:14;;;;;;;;;;;;;;;;;;5069398;28;20380;-62
2023/01/18 03:46:39;;;;;;;;;;;;;;;;;;5062343;28;19937;-62
2023/01/18 03:49:04;;;;;;;;;;;;;;;;;;5068664;28;19920;-62
2023/01/18 03:51:30;;;;;;;;;;;;;;;;;;5061055;28;19919;-61
2023/01/18 03:53:55;;;;;;;;;;;;;;;;;;5062117;28;20436;-62
2023/01/18 03:56:20;;;;;;;;;;;;;;;;;;5055234;28;19920;-62
2023/01/18 03:58:45;;;;;;;;;;;;;;;;;;5068685;28;19912;-62
2023/01/18 04:01:10;;;;;;;;;;;;;;;;;;5067516;28;19963;-63
2023/01/18 04:03:36;;;;;;;;;;;;;;;;;;5073927;28;19923;-63
2023/01/18 04:06:01;;;;;;;;;;;;;;;;;;5067633;28;20424;-63
2023/01/18 04:08:26;;;;;;;;;;;;;;;;;;5061338;28;19995;-62
2023/01/18 04:10:51;;;;;;;;;;;;;;;;;;5059739;28;19939;-62
2023/01/18 04:13:16;;;;;;;;;;;;;;;;;;5079980;28;20368;-62
2023/01/18 04:15:41;;;;;;;;;;;;;;;;;;5063467;28;19978;-62
2023/01/18 04:18:06;;;;;;;;;;;;;;;;;;5073682;28;19912;-62
2023/01/18 04:20:31;;;;;;;;;;;;;;;;;;5066503;28;20043;-63
2023/01/18 04:22:57;;;;;;;;;;;;;;;;;;5067115;28;20392;-62
2023/01/18 04:25:22;;;;;;;;;;;;;;;;;;5074239;28;19916;-62
2023/01/18 04:27:47;;;;;;;;;;;;;;;;;;5068227;28;19999;-62
2023/01/18 04:30:12;;;;;;;;;;;;;;;;;;5072991;28;20396;-62
2023/01/18 04:32:38;;;;;;;;;;;;;;;;;;5067247;28;19917;-62
2023/01/18 04:35:03;;;;;;;;;;;;;;;;;;5073486;28;20022;-62
2023/01/18 04:37:29;;;;;;;;;;;;;;;;;;5065010;28;20016;-62
2023/01/18 04:39:54;;;;;;;;;;;;;;;;;;5063423;28;20062;-62
2023/01/18 04:42:20;;;;;;;;;;;;;;;;;;5072658;28;19999;-62
2023/01/18 04:44:45;;;;;;;;;;;;;;;;;;5059819;28;19923;-63
2023/01/18 04:47:10;;;;;;;;;;;;;;;;;;5048773;28;19913;-62
2023/01/18 04:49:35;;;;;;;;;;;;;;;;;;5072605;28;20373;-62
2023/01/18 04:52:00;;;;;;;;;;;;;;;;;;5063066;28;20349;-61
2023/01/18 04:54:25;;;;;;;;;;;;;;;;;;5071948;28;19917;-62
2023/01/18 04:56:51;;;;;;;;;;;;;;;;;;5069612;28;19912;-62
2023/01/18 04:59:16;;;;;;;;;;;;;;;;;;5073022;28;20291;-62
2023/01/18 05:01:41;;;;;;;;;;;;;;;;;;5062014;28;19913;-62
2023/01/18 05:04:06;;;;;;;;;;;;;;;;;;5071217;28;19920;-62
2023/01/18 05:06:31;;;;;;;;;;;;;;;;;;5068952;28;19963;-62
2023/01/18 05:08:56;;;;;;;;;;;;;;;;;;5076217;28;20298;-62
2023/01/18 05:11:22;;;;;;;;;;;;;;;;;;5055221;28;20023;-62
2023/01/18 05:13:47;;;;;;;;;;;;;;;;;;5065925;28;19920;-60
2023/01/18 05:16:12;;;;;;;;;;;;;;;;;;5065066;28;20334;-62
2023/01/18 05:18:37;;;;;;;;;;;;;;;;;;5069510;28;19916;-62
2023/01/18 05:21:02;;;;;;;;;;;;;;;;;;5065285;28;19920;-62
2023/01/18 05:23:27;;;;;;;;;;;;;;;;;;5053539;28;20376;-62
2023/01/18 05:25:53;;;;;;;;;;;;;;;;;;5076507;28;20054;-62
2023/01/18 05:28:18;;;;;;;;;;;;;;;;;;5070626;28;19913;-63
2023/01/18 05:30:43;;;;;;;;;;;;;;;;;;5057085;28;20272;-62
2023/01/18 05:33:08;;;;;;;;;;;;;;;;;;5053762;28;19919;-62
2023/01/18 05:35:33;;;;;;;;;;;;;;;;;;5064678;28;20067;-64
2023/01/18 05:37:59;;;;;;;;;;;;;;;;;;5066625;28;20376;-62
2023/01/18 05:40:24;;;;;;;;;;;;;;;;;;5079771;28;19985;-62
2023/01/18 05:42:49;;;;;;;;;;;;;;;;;;5065752;28;19920;-62
2023/01/18 05:45:14;;;;;;;;;;;;;;;;;;5064486;28;19920;-62
2023/01/18 05:47:40;;;;;;;;;;;;;;;;;;5064564;28;19918;-63
2023/01/18 05:50:05;;;;;;;;;;;;;;;;;;5071254;28;19916;-62
2023/01/18 05:52:30;;;;;;;;;;;;;;;;;;5059441;28;19919;-62
2023/01/18 05:54:55;;;;;;;;;;;;;;;;;;5062187;28;19924;-62
2023/01/18 05:57:20;;;;;;;;;;;;;;;;;;5072825;28;20338;-62
2023/01/18 05:59:45;;;;;;;;;;;;;;;;;;5062465;28;20430;-62
2023/01/18 06:02:10;;;;;;;;;;;;;;;;;;5055256;28;20540;-63
2023/01/18 06:04:35;;;;;;;;;;;;;;;;;;5050221;28;19940;-63
2023/01/18 06:07:01;;;;;;;;;;;;;;;;;;5054799;28;21397;-62
2023/01/18 06:09:26;;;;;;;;;;;;;;;;;;5055914;28;19923;-63
2023/01/18 06:11:51;;;;;;;;;;;;;;;;;;5063992;28;20003;-62
2023/01/18 06:14:16;;;;;;;;;;;;;;;;;;5064230;28;19917;-63
2023/01/18 06:16:41;;;;;;;;;;;;;;;;;;5058484;28;19908;-63
2023/01/18 06:19:06;;;;;;;;;;;;;;;;;;5062154;28;19913;-62
2023/01/18 06:21:31;;;;;;;;;;;;;;;;;;5070939;28;20276;-62
2023/01/18 06:23:57;;;;;;;;;;;;;;;;;;5056721;28;20167;-62
2023/01/18 06:26:22;;;;;;;;;;;;;;;;;;5060221;28;20261;-62
2023/01/18 06:28:47;;;;;;;;;;;;;;;;;;5063924;28;20504;-63
2023/01/18 06:31:13;;;;;;;;;;;;;;;;;;5069712;28;19920;-64
2023/01/18 06:33:38;;;;;;;;;;;;;;;;;;5062641;28;20132;-62
2023/01/18 06:36:04;;;;;;;;;;;;;;;;;;5053098;28;20491;-62
2023/01/18 06:38:30;;;;;;;;;;;;;;;;;;5067628;28;19993;-63
2023/01/18 06:40:55;;;;;;;;;;;;;;;;;;5063415;28;19987;-62
2023/01/18 06:43:21;;;;;;;;;;;;;;;;;;5041653;28;20012;-63
2023/01/18 06:45:46;;;;;;;;;;;;;;;;;;5043300;28;20019;-62
2023/01/18 06:48:11;;;;;;;;;;;;;;;;;;5050324;28;20519;-63
2023/01/18 06:50:37;;;;;;;;;;;;;;;;;;5053278;28;20389;-63
2023/01/18 06:53:02;;;;;;;;;;;;;;;;;;5053310;28;20439;-63
2023/01/18 06:55:27;;;;;;;;;;;;;;;;;;5050586;28;20388;-63
2023/01/18 06:57:53;;;;;;;;;;;;;;;;;;5034465;28;19908;-62
2023/01/18 07:00:18;;;;;;;;;;;;;;;;;;5051153;28;20016;-62
2023/01/18 07:02:44;;;;;;;;;;;;;;;;;;5053881;28;19948;-62
2023/01/18 07:05:09;;;;;;;;;;;;;;;;;;5055985;28;19917;-63
2023/01/18 07:07:34;;;;;;;;;;;;;;;;;;5036904;28;19920;-63
2023/01/18 07:09:59;;;;;;;;;;;;;;;;;;5052295;28;19913;-63
2023/01/18 07:12:24;;;;;;;;;;;;;;;;;;5052444;28;19955;-63
2023/01/18 07:14:50;;;;;;;;;;;;;;;;;;5049598;28;19924;-63
2023/01/18 07:17:15;;;;;;;;;;;;;;;;;;5050402;28;19959;-63
2023/01/18 07:19:40;;;;;;;;;;;;;;;;;;5049913;28;19913;-62
2023/01/18 07:22:05;;;;;;;;;;;;;;;;;;5045823;28;20007;-62
2023/01/18 07:24:30;;;;;;;;;;;;;;;;;;5046650;28;20296;-62
2023/01/18 07:26:58;;;;;;;;;;;;;;;;;;5045806;28;20304;-63
2023/01/18 07:29:23;;;;;;;;;;;;;;;;;;5044115;28;20354;-62
2023/01/18 07:31:48;;;;;;;;;;;;;;;;;;5026015;28;19924;-61
2023/01/18 07:34:13;;;;;;;;;;;;;;;;;;5038796;28;19932;-61
2023/01/18 07:36:40;;;;;;;;;;;;;;;;;;5025339;28;20392;-62
2023/01/18 07:39:05;;;;;;;;;;;;;;;;;;5056267;28;20013;-62
2023/01/18 07:41:30;;;;;;;;;;;;;;;;;;5074969;28;19956;-63
2023/01/18 07:43:56;;;;;;;;;;;;;;;;;;5057492;28;19916;-62
2023/01/18 07:46:21;;;;;;;;;;;;;;;;;;5074074;28;19958;-62
2023/01/18 07:48:47;;;;;;;;;;;;;;;;;;5056545;28;19913;-62
2023/01/18 07:51:12;;;;;;;;;;;;;;;;;;5076204;28;19991;-62
2023/01/18 07:53:37;;;;;;;;;;;;;;;;;;5074992;28;20449;-63
2023/01/18 07:56:02;;;;;;;;;;;;;;;;;;5076061;28;19913;-63
2023/01/18 07:58:27;;;;;;;;;;;;;;;;;;5073084;28;19963;-63
2023/01/18 08:00:52;;;;;;;;;;;;;;;;;;5056183;28;19916;-63
2023/01/18 08:03:18;;;;;;;;;;;;;;;;;;5075260;28;19962;-63
2023/01/18 08:05:43;;;;;;;;;;;;;;;;;;5073368;28;19916;-62
2023/01/18 08:08:08;;;;;;;;;;;;;;;;;;5071857;28;19923;-62
2023/01/18 08:10:34;;;;;;;;;;;;;;;;;;5036350;28;19959;-63
2023/01/18 08:12:59;;;;;;;;;;;;;;;;;;5074755;28;19915;-63
2023/01/18 08:15:24;;;;;;;;;;;;;;;;;;5081264;28;19974;-63
2023/01/18 08:17:50;;;;;;;;;;;;;;;;;;5077237;28;19913;-62
2023/01/18 08:20:15;;;;;;;;;;;;;;;;;;5073197;28;19912;-62
2023/01/18 08:22:40;;;;;;;;;;;;;;;;;;5075398;28;19948;-63
2023/01/18 08:25:05;;;;;;;;;;;;;;;;;;5054851;28;19916;-63
2023/01/18 08:27:30;;;;;;;;;;;;;;;;;;5075551;28;20365;-63
2023/01/18 08:29:56;;;;;;;;;;;;;;;;;;5052837;28;19916;-62
2023/01/18 08:32:21;;;;;;;;;;;;;;;;;;4992876;28;20000;-65
2023/01/18 08:34:46;;;;;;;;;;;;;;;;;;5016629;28;20296;-63
2023/01/18 08:37:11;;;;;;;;;;;;;;;;;;5035397;28;20326;-64
2023/01/18 08:39:36;;;;;;;;;;;;;;;;;;5053771;28;20399;-62
2023/01/18 08:42:01;;;;;;;;;;;;;;;;;;5071103;28;19958;-63
2023/01/18 08:44:27;;;;;;;;;;;;;;;;;;5069474;28;19920;-63
2023/01/18 08:46:52;;;;;;;;;;;;;;;;;;5073933;28;19920;-63
2023/01/18 08:49:17;;;;;;;;;;;;;;;;;;5074192;28;19913;-62
2023/01/18 08:51:42;;;;;;;;;;;;;;;;;;5073287;28;19991;-63
2023/01/18 08:54:08;;;;;;;;;;;;;;;;;;5074788;28;19909;-63
2023/01/18 08:56:33;;;;;;;;;;;;;;;;;;5073392;28;20377;-63
2023/01/18 08:58:58;;;;;;;;;;;;;;;;;;5074577;28;20422;-63
2023/01/18 09:01:24;;;;;;;;;;;;;;;;;;5072748;28;19920;-62
2023/01/18 09:03:49;;;;;;;;;;;;;;;;;;5068985;28;19956;-62
2023/01/18 09:06:15;;;;;;;;;;;;;;;;;;5060780;28;20295;-63
2023/01/18 09:08:40;;;;;;;;;;;;;;;;;;5036473;28;19919;-63
2023/01/18 09:11:05;;;;;;;;;;;;;;;;;;5069651;28;19916;-62
2023/01/18 09:13:30;;;;;;;;;;;;;;;;;;5067619;28;19923;-62
2023/01/18 09:15:56;;;;;;;;;;;;;;;;;;5070738;28;20011;-65
2023/01/18 09:18:21;;;;;;;;;;;;;;;;;;5071666;28;19912;-63
2023/01/18 09:20:46;;;;;;;;;;;;;;;;;;5065008;28;19912;-64
2023/01/18 09:23:11;;;;;;;;;;;;;;;;;;5072620;28;20005;-63
2023/01/18 09:25:36;;;;;;;;;;;;;;;;;;5077453;28;19971;-64
2023/01/18 09:28:02;;;;;;;;;;;;;;;;;;5012938;28;19910;-63
2023/01/18 09:30:27;;;;;;;;;;;;;;;;;;5023884;28;20002;-63
2023/01/18 09:32:53;;;;;;;;;;;;;;;;;;5062458;28;20400;-63
2023/01/18 09:35:18;;;;;;;;;;;;;;;;;;5068414;28;19913;-61
2023/01/18 09:37:43;;;;;;;;;;;;;;;;;;5070473;28;20383;-63
2023/01/18 09:40:08;;;;;;;;;;;;;;;;;;5072105;28;20371;-63
2023/01/18 09:42:33;;;;;;;;;;;;;;;;;;5073078;28;19916;-63
2023/01/18 09:44:58;;;;;;;;;;;;;;;;;;5071262;28;19913;-62
2023/01/18 09:47:24;;;;;;;;;;;;;;;;;;5069945;28;19913;-62
2023/01/18 09:49:53;;;;;;;;;;;;;;;;;;5061897;28;19956;-62
2023/01/18 09:52:18;;;;;;;;;;;;;;;;;;5068429;28;19944;-62
2023/01/18 09:54:44;;;;;;;;;;;;;;;;;;5073054;28;20410;-62
2023/01/18 09:57:09;;;;;;;;;;;;;;;;;;5071594;28;19920;-63
2023/01/18 09:59:34;;;;;;;;;;;;;;;;;;5071091;28;19917;-62
2023/01/18 10:02:00;;;;;;;;;;;;;;;;;;5053615;28;20349;-62
2023/01/18 10:04:25;;;;;;;;;;;;;;;;;;5072865;28;19935;-63
2023/01/18 10:06:50;;;;;;;;;;;;;;;;;;5069827;28;19913;-62
2023/01/18 10:09:16;;;;;;;;;;;;;;;;;;5063674;28;19916;-62
2023/01/18 10:11:44;;;;;;;;;;;;;;;;;;5054670;28;19924;-63
2023/01/18 10:14:09;;;;;;;;;;;;;;;;;;5073183;28;20372;-62
2023/01/18 10:16:36;;;;;;;;;;;;;;;;;;5073235;28;19947;-63
2023/01/18 10:19:01;;;;;;;;;;;;;;;;;;5070609;28;19999;-61
2023/01/18 10:21:26;;;;;;;;;;;;;;;;;;5073158;28;19993;-62
2023/01/18 10:23:52;;;;;;;;;;;;;;;;;;5071115;28;19919;-62
2023/01/18 10:26:17;;;;;;;;;;;;;;;;;;5069875;28;19916;-63
2023/01/18 10:28:44;;;;;;;;;;;;;;;;;;5070191;28;19912;-62
2023/01/18 10:31:09;;;;;;;;;;;;;;;;;;5071874;28;19912;-63
2023/01/18 10:33:34;;;;;;;;;;;;;;;;;;5067678;28;20265;-63
2023/01/18 10:35:59;;;;;;;;;;;;;;;;;;5028991;28;20360;-63
2023/01/18 10:38:24;;;;;;;;;;;;;;;;;;5068535;28;19958;-63
2023/01/18 10:40:49;;;;;;;;;;;;;;;;;;5071524;28;19939;-62
2023/01/18 10:43:19;;;;;;;;;;;;;;;;;;5070901;28;19924;-63
2023/01/18 10:45:44;;;;;;;;;;;;;;;;;;5072457;28;19923;-62
2023/01/18 10:48:09;;;;;;;;;;;;;;;;;;5070858;28;19909;-62
2023/01/18 10:50:34;;;;;;;;;;;;;;;;;;5071003;28;19958;-63
2023/01/18 10:53:00;;;;;;;;;;;;;;;;;;5072559;28;19916;-63
2023/01/18 10:55:25;;;;;;;;;;;;;;;;;;5070434;28;19919;-63
2023/01/18 10:57:53;;;;;;;;;;;;;;;;;;5072570;28;19908;-63
2023/01/18 11:00:20;;;;;;;;;;;;;;;;;;5068824;28;19919;-63
2023/01/18 11:02:45;;;;;;;;;;;;;;;;;;5072686;28;19908;-63
2023/01/18 11:05:10;;;;;;;;;;;;;;;;;;5069200;28;20426;-62
2023/01/18 11:07:37;;;;;;;;;;;;;;;;;;5067577;28;19958;-63
2023/01/18 11:10:08;;;;;;;;;;;;;;;;;;5069987;28;19913;-62
2023/01/18 11:12:33;;;;;;;;;;;;;;;;;;5035045;28;19917;-62
2023/01/18 11:14:58;;;;;;;;;;;;;;;;;;5068068;28;19927;-62
2023/01/18 11:17:23;;;;;;;;;;;;;;;;;;5070928;28;19961;-63
2023/01/18 11:19:49;;;;;;;;;;;;;;;;;;5070890;28;19912;-62
2023/01/18 11:22:14;;;;;;;;;;;;;;;;;;5071111;28;20403;-63
2023/01/18 11:24:39;;;;;;;;;;;;;;;;;;5069899;28;20035;-64
2023/01/18 11:27:04;;;;;;;;;;;;;;;;;;5067195;28;19927;-63
2023/01/18 11:29:29;;;;;;;;;;;;;;;;;;5045669;28;19913;-63
2023/01/18 11:31:55;;;;;;;;;;;;;;;;;;5052583;28;19942;-63
2023/01/18 11:34:20;;;;;;;;;;;;;;;;;;5071750;28;19963;-63
2023/01/18 11:36:45;;;;;;;;;;;;;;;;;;5066957;28;20009;-63
2023/01/18 11:39:11;;;;;;;;;;;;;;;;;;5052039;28;19995;-63
2023/01/18 11:41:36;;;;;;;;;;;;;;;;;;5069769;28;19966;-63
2023/01/18 11:44:01;;;;;;;;;;;;;;;;;;5075085;28;19958;-62
2023/01/18 11:46:26;;;;;;;;;;;;;;;;;;5049217;28;19928;-62
2023/01/18 11:48:51;;;;;;;;;;;;;;;;;;5069060;28;19912;-64
2023/01/18 11:51:18;;;;;;;;;;;;;;;;;;5071177;28;19912;-63
2023/01/18 11:53:43;;;;;;;;;;;;;;;;;;5069961;28;19931;-63
2023/01/18 11:56:08;;;;;;;;;;;;;;;;;;5066217;28;19917;-63
2023/01/18 11:58:34;;;;;;;;;;;;;;;;;;5066661;28;19916;-63
2023/01/18 12:00:59;;;;;;;;;;;;;;;;;;5032241;28;19938;-63
2023/01/18 12:03:24;;;;;;;;;;;;;;;;;;5068465;28;19916;-62
2023/01/18 12:05:51;;;;;;;;;;;;;;;;;;5085333;28;19920;-64
2023/01/18 12:08:16;;;;;;;;;;;;;;;;;;5072231;28;19912;-63
2023/01/18 12:10:42;;;;;;;;;;;;;;;;;;5071494;28;19909;-62
2023/01/18 12:13:07;;;;;;;;;;;;;;;;;;5068387;28;19924;-63
2023/01/18 12:15:32;;;;;;;;;;;;;;;;;;5068621;28;19913;-63
2023/01/18 12:17:57;;;;;;;;;;;;;;;;;;5050887;28;19928;-64
2023/01/18 12:20:22;;;;;;;;;;;;;;;;;;5066857;28;19923;-63
2023/01/18 12:22:48;;;;;;;;;;;;;;;;;;5055567;28;19941;-62
2023/01/18 12:25:13;;;;;;;;;;;;;;;;;;5038535;28;19921;-63
2023/01/18 12:27:38;;;;;;;;;;;;;;;;;;5075412;28;20348;-63
2023/01/18 12:30:05;;;;;;;;;;;;;;;;;;5071938;28;20376;-62
2023/01/18 12:32:30;;;;;;;;;;;;;;;;;;5075180;28;19912;-62
2023/01/18 12:34:56;;;;;;;;;;;;;;;;;;5074046;28;19920;-64
2023/01/18 12:37:21;;;;;;;;;;;;;;;;;;5069163;28;20053;-63
2023/01/18 12:39:47;;;;;;;;;;;;;;;;;;5055320;28;20026;-63
2023/01/18 12:42:12;;;;;;;;;;;;;;;;;;5074914;28;19970;-63
2023/01/18 12:44:37;;;;;;;;;;;;;;;;;;5074314;28;20368;-63
2023/01/18 12:47:02;;;;;;;;;;;;;;;;;;5074723;28;20399;-62
2023/01/18 12:49:28;;;;;;;;;;;;;;;;;;5072213;28;19913;-63
2023/01/18 12:51:53;;;;;;;;;;;;;;;;;;5072240;28;19916;-63
2023/01/18 12:54:18;;;;;;;;;;;;;;;;;;5072301;28;19913;-63
2023/01/18 12:56:43;;;;;;;;;;;;;;;;;;5074822;28;19916;-63
2023/01/18 12:59:08;;;;;;;;;;;;;;;;;;5074198;28;20357;-63
2023/01/18 13:01:34;;;;;;;;;;;;;;;;;;5066850;28;20399;-63
2023/01/18 13:03:59;;;;;;;;;;;;;;;;;;5073976;28;19909;-62
2023/01/18 13:06:24;;;;;;;;;;;;;;;;;;5072083;28;19920;-63
2023/01/18 13:08:50;;;;;;;;;;;;;;;;;;5030919;28;19912;-63
2023/01/18 13:11:16;;;;;;;;;;;;;;;;;;5072153;28;19912;-63
2023/01/18 13:13:41;;;;;;;;;;;;;;;;;;5073890;28;19913;-63
2023/01/18 13:16:08;;;;;;;;;;;;;;;;;;5044565;28;20005;-62
2023/01/18 13:18:33;;;;;;;;;;;;;;;;;;5031940;28;19912;-62
2023/01/18 13:20:58;;;;;;;;;;;;;;;;;;5074314;28;20395;-63
2023/01/18 13:23:24;;;;;;;;;;;;;;;;;;5064908;28;19919;-64
2023/01/18 13:25:49;;;;;;;;;;;;;;;;;;5038535;28;20292;-63
2023/01/18 13:28:14;;;;;;;;;;;;;;;;;;5062604;28;19923;-64
2023/01/18 13:30:39;;;;;;;;;;;;;;;;;;5072999;28;19919;-63
2023/01/18 13:33:04;;;;;;;;;;;;;;;;;;5066614;28;19919;-63
2023/01/18 13:35:32;;;;;;;;;;;;;;;;;;5073059;28;20400;-63
2023/01/18 13:37:57;;;;;;;;;;;;;;;;;;5072368;28;20003;-64
2023/01/18 13:40:22;;;;;;;;;;;;;;;;;;5069480;28;20047;-62
2023/01/18 13:42:47;;;;;;;;;;;;;;;;;;5069203;28;19913;-62
2023/01/18 13:45:13;;;;;;;;;;;;;;;;;;5069543;28;19924;-62
2023/01/18 13:47:41;;;;;;;;;;;;;;;;;;5073833;28;20331;-63
2023/01/18 13:50:06;;;;;;;;;;;;;;;;;;5072392;28;19913;-63
2023/01/18 13:52:32;;;;;;;;;;;;;;;;;;5074146;28;19919;-64
2023/01/18 13:54:59;;;;;;;;;;;;;;;;;;5054092;28;20372;-62
2023/01/18 13:57:25;;;;;;;;;;;;;;;;;;5074028;28;20406;-62
2023/01/18 13:59:50;;;;;;;;;;;;;;;;;;5071094;28;20003;-63
2023/01/18 14:02:15;;;;;;;;;;;;;;;;;;5063869;28;19920;-63
2023/01/18 14:04:41;;;;;;;;;;;;;;;;;;5066547;28;20038;-63
2023/01/18 14:07:06;;;;;;;;;;;;;;;;;;5071016;28;19939;-63
2023/01/18 14:09:31;;;;;;;;;;;;;;;;;;5072548;28;19915;-63
2023/01/18 14:11:56;;;;;;;;;;;;;;;;;;5053479;28;19998;-63
2023/01/18 14:14:22;;;;;;;;;;;;;;;;;;5067495;28;19948;-63
2023/01/18 14:16:47;;;;;;;;;;;;;;;;;;5038231;28;20335;-63
2023/01/18 14:19:12;;;;;;;;;;;;;;;;;;5053072;28;19999;-62
2023/01/18 14:21:37;;;;;;;;;;;;;;;;;;5071557;28;19912;-62
2023/01/18 14:24:04;;;;;;;;;;;;;;;;;;5059753;28;20002;-62
2023/01/18 14:26:30;;;;;;;;;;;;;;;;;;5059960;28;20020;-64
2023/01/18 14:28:55;;;;;;;;;;;;;;;;;;5074030;28;20003;-63
2023/01/18 14:31:20;;;;;;;;;;;;;;;;;;5058463;28;19924;-63
2023/01/18 14:33:45;;;;;;;;;;;;;;;;;;5074058;28;19919;-63
2023/01/18 14:36:10;;;;;;;;;;;;;;;;;;5065420;28;19916;-64
2023/01/18 14:38:35;;;;;;;;;;;;;;;;;;5023707;28;19917;-62
2023/01/18 14:41:01;;;;;;;;;;;;;;;;;;5060116;28;19936;-63
2023/01/18 14:43:26;;;;;;;;;;;;;;;;;;5060814;28;19913;-64
2023/01/18 14:45:52;;;;;;;;;;;;;;;;;;5073484;28;19927;-63
2023/01/18 14:48:18;;;;;;;;;;;;;;;;;;5069419;28;19990;-65
2023/01/18 14:50:46;;;;;;;;;;;;;;;;;;5066254;28;20330;-65
2023/01/18 14:53:11;;;;;;;;;;;;;;;;;;5062074;28;19984;-68
2023/01/18 14:55:36;;;;;;;;;;;;;;;;;;5063234;28;20375;-68
2023/01/18 14:58:01;;;;;;;;;;;;;;;;;;5062209;28;20070;-68
2023/01/18 15:00:27;;;;;;;;;;;;;;;;;;5061930;28;19913;-67
2023/01/18 15:02:52;;;;;;;;;;;;;;;;;;5063756;28;20288;-64
2023/01/18 15:05:18;;;;;;;;;;;;;;;;;;5069735;28;19916;-66
2023/01/18 15:07:44;;;;;;;;;;;;;;;;;;5067470;28;19917;-64
2023/01/18 15:10:09;;;;;;;;;;;;;;;;;;5073552;28;20022;-66
2023/01/18 15:12:35;;;;;;;;;;;;;;;;;;5069350;28;20433;-67
2023/01/18 15:15:00;;;;;;;;;;;;;;;;;;5070947;28;19912;-64
2023/01/18 15:17:25;;;;;;;;;;;;;;;;;;5065651;28;20935;-64
2023/01/18 15:19:53;;;;;;;;;;;;;;;;;;5066104;28;20285;-65
2023/01/18 15:22:19;;;;;;;;;;;;;;;;;;5068182;28;19993;-67
2023/01/18 15:24:44;;;;;;;;;;;;;;;;;;5065212;28;20023;-69
2023/01/18 15:27:09;;;;;;;;;;;;;;;;;;5069056;28;19920;-64
2023/01/18 15:29:34;;;;;;;;;;;;;;;;;;5067150;28;19939;-67
2023/01/18 15:31:59;;;;;;;;;;;;;;;;;;5058608;28;19920;-63
2023/01/18 15:34:24;;;;;;;;;;;;;;;;;;5061989;28;20502;-67
2023/01/18 15:36:49;;;;;;;;;;;;;;;;;;5060296;28;20368;-66
2023/01/18 15:39:15;;;;;;;;;;;;;;;;;;5069979;28;19916;-64
2023/01/18 15:41:40;;;;;;;;;;;;;;;;;;5069574;28;20089;-68
2023/01/18 15:44:06;;;;;;;;;;;;;;;;;;5075772;28;20364;-65
2023/01/18 15:46:32;;;;;;;;;;;;;;;;;;5075261;28;19970;-62
2023/01/18 15:48:57;;;;;;;;;;;;;;;;;;5068019;28;19964;-61
2023/01/18 15:51:51;;;;;;;;;;;;;;;;;;5064347;28;19909;-61
2023/01/18 15:54:07;;;;;;;;;;;;;;;;;;5065767;28;20262;-62
2023/01/18 15:56:33;;;;;;;;;;;;;;;;;;5068967;28;19919;-61
2023/01/18 15:58:58;;;;;;;;;;;;;;;;;;5078552;28;19952;-61
2023/01/18 16:01:48;;;;;;;;;;;;;;;;;;5073139;28;20427;-61
2023/01/18 16:04:10;;;;;;;;;;;;;;;;;;5074127;28;19913;-62
2023/01/18 16:06:36;;;;;;;;;;;;;;;;;;5066008;28;19931;-62
2023/01/18 16:09:07;;;;;;;;;;;;;;;;;;5073662;28;20015;-62
2023/01/18 16:11:32;;;;;;;;;;;;;;;;;;5072251;28;19913;-62
2023/01/18 16:13:57;;;;;;;;;;;;;;;;;;5073546;28;19912;-62
2023/01/18 16:16:22;;;;;;;;;;;;;;;;;;5080775;28;19908;-62
2023/01/18 16:18:48;;;;;;;;;;;;;;;;;;5082325;28;19912;-62
2023/01/18 16:21:13;;;;;;;;;;;;;;;;;;5075204;28;20409;-62
2023/01/18 16:23:38;;;;;;;;;;;;;;;;;;5069603;28;19908;-62
2023/01/18 16:26:03;;;;;;;;;;;;;;;;;;5045155;28;19918;-62
2023/01/18 16:28:28;;;;;;;;;;;;;;;;;;5061372;28;19912;-62
2023/01/18 16:30:53;;;;;;;;;;;;;;;;;;5065688;28;19962;-63
2023/01/18 16:33:19;;;;;;;;;;;;;;;;;;5070223;28;19920;-63
2023/01/18 16:35:44;;;;;;;;;;;;;;;;;;5072737;28;19908;-63
2023/01/18 16:38:10;;;;;;;;;;;;;;;;;;5066797;28;20326;-61
2023/01/18 16:40:35;;;;;;;;;;;;;;;;;;5070129;28;20285;-62
2023/01/18 16:43:00;;;;;;;;;;;;;;;;;;5061155;28;19916;-61
2023/01/18 16:45:26;;;;;;;;;;;;;;;;;;5064770;28;19921;-62
2023/01/18 16:47:51;;;;;;;;;;;;;;;;;;5061374;28;19916;-61
2023/01/18 16:50:16;;;;;;;;;;;;;;;;;;5070371;28;20386;-60
2023/01/18 16:52:41;;;;;;;;;;;;;;;;;;5068275;28;19946;-62
2023/01/18 16:55:07;;;;;;;;;;;;;;;;;;5070715;28;19959;-61
2023/01/18 16:57:32;;;;;;;;;;;;;;;;;;5059748;28;20245;-61
2023/01/18 16:59:57;;;;;;;;;;;;;;;;;;5068218;28;19966;-60
2023/01/18 17:02:22;;;;;;;;;;;;;;;;;;5069045;28;19916;-62